KAGC/AGC METAR and TAF weather

Enter ICAO airport designator
Station Type Date Time Source
KAGC METAR 2019/08/22 01:53 UTC NOAA

KAGC 220153Z 25007KT 10SM CLR 23/19 A2997 RMK AO2 SLP143 T02330189


Station Type Date Time Source
KAGC Decoded METAR 2019/08/22 01:53 UTC NOAA

Station name not available
Aug 21, 2019 - 09:53 PM EDT / 2019.08.22 0153 UTC
Wind: from the WSW (250 degrees) at 8 MPH (7 KT):0
Visibility: 10 mile(s):0
Sky conditions: clear
Temperature: 73.9 F (23.3 C)
Dew Point: 66.0 F (18.9 C)
Relative Humidity: 76%
Pressure (altimeter): 29.97 in. Hg (1014 hPa)
ob: KAGC 220153Z 25007KT 10SM CLR 23/19 A2997 RMK AO2 SLP143 T02330189
cycle: 2

Station Type Date Time Source
KAGC TAF 2019/08/21 20:48 UTC NOAA

TAF
AMD KAGC 211946Z 2120/2218 24010G20KT P6SM SCT050
FM220000 21006KT P6SM SCT060
FM221000 22005KT 3SM BR BKN008
FM221500 24006KT 5SM -SHRA BKN015

Example: see airport list